sensor_id;sensor_type;location;lat;lon;timestamp;P1;durP1;ratioP1;P2;durP2;ratioP2
19280;SDS011;9774;52.034;5.342;2024-02-15T00:00:17;6.60;;;3.55;;
19280;SDS011;9774;52.034;5.342;2024-02-15T00:02:45;6.35;;;3.72;;
19280;SDS011;9774;52.034;5.342;2024-02-15T00:05:12;8.57;;;4.00;;
19280;SDS011;9774;52.034;5.342;2024-02-15T00:07:41;4.25;;;3.15;;
19280;SDS011;9774;52.034;5.342;2024-02-15T00:10:09;5.25;;;3.25;;
19280;SDS011;9774;52.034;5.342;2024-02-15T00:12:37;5.20;;;3.08;;
19280;SDS011;9774;52.034;5.342;2024-02-15T00:15:05;4.43;;;3.10;;
19280;SDS011;9774;52.034;5.342;2024-02-15T00:17:33;4.07;;;2.60;;
19280;SDS011;9774;52.034;5.342;2024-02-15T00:20:01;2.95;;;2.65;;
19280;SDS011;9774;52.034;5.342;2024-02-15T00:22:34;4.32;;;2.47;;
19280;SDS011;9774;52.034;5.342;2024-02-15T00:25:01;3.10;;;2.30;;
19280;SDS011;9774;52.034;5.342;2024-02-15T00:27:30;5.88;;;2.47;;
19280;SDS011;9774;52.034;5.342;2024-02-15T00:29:59;3.30;;;3.00;;
19280;SDS011;9774;52.034;5.342;2024-02-15T00:32:26;5.93;;;2.97;;
19280;SDS011;9774;52.034;5.342;2024-02-15T00:34:53;8.85;;;3.55;;
19280;SDS011;9774;52.034;5.342;2024-02-15T00:37:20;3.83;;;2.88;;
19280;SDS011;9774;52.034;5.342;2024-02-15T00:39:47;4.70;;;3.00;;
19280;SDS011;9774;52.034;5.342;2024-02-15T00:42:14;4.70;;;3.17;;
19280;SDS011;9774;52.034;5.342;2024-02-15T00:44:41;6.07;;;3.10;;
19280;SDS011;9774;52.034;5.342;2024-02-15T00:47:10;6.15;;;3.20;;
19280;SDS011;9774;52.034;5.342;2024-02-15T00:49:38;4.65;;;2.88;;
19280;SDS011;9774;52.034;5.342;2024-02-15T00:52:05;4.28;;;2.85;;
19280;SDS011;9774;52.034;5.342;2024-02-15T00:54:32;5.57;;;2.92;;
19280;SDS011;9774;52.034;5.342;2024-02-15T00:56:59;7.07;;;3.40;;
19280;SDS011;9774;52.034;5.342;2024-02-15T00:59:26;4.18;;;2.85;;
19280;SDS011;9774;52.034;5.342;2024-02-15T01:01:53;5.25;;;3.15;;
19280;SDS011;9774;52.034;5.342;2024-02-15T01:04:22;4.97;;;3.45;;
19280;SDS011;9774;52.034;5.342;2024-02-15T01:06:49;4.00;;;3.10;;
19280;SDS011;9774;52.034;5.342;2024-02-15T01:09:16;6.65;;;3.72;;
19280;SDS011;9774;52.034;5.342;2024-02-15T01:11:43;7.15;;;4.70;;
19280;SDS011;9774;52.034;5.342;2024-02-15T01:14:11;6.10;;;4.35;;
19280;SDS011;9774;52.034;5.342;2024-02-15T01:16:38;5.53;;;4.03;;
19280;SDS011;9774;52.034;5.342;2024-02-15T01:19:05;5.13;;;4.57;;
19280;SDS011;9774;52.034;5.342;2024-02-15T01:21:34;5.72;;;4.38;;
19280;SDS011;9774;52.034;5.342;2024-02-15T01:24:01;6.88;;;5.05;;
19280;SDS011;9774;52.034;5.342;2024-02-15T01:26:31;6.53;;;5.70;;
19280;SDS011;9774;52.034;5.342;2024-02-15T01:28:59;8.00;;;6.30;;
19280;SDS011;9774;52.034;5.342;2024-02-15T01:31:28;9.10;;;5.85;;
19280;SDS011;9774;52.034;5.342;2024-02-15T01:33:55;8.30;;;6.25;;
19280;SDS011;9774;52.034;5.342;2024-02-15T01:36:22;7.82;;;6.75;;
19280;SDS011;9774;52.034;5.342;2024-02-15T01:38:51;7.78;;;6.70;;
19280;SDS011;9774;52.034;5.342;2024-02-15T01:41:18;8.90;;;6.97;;
19280;SDS011;9774;52.034;5.342;2024-02-15T01:43:45;9.13;;;7.35;;
19280;SDS011;9774;52.034;5.342;2024-02-15T01:46:12;9.15;;;7.35;;
19280;SDS011;9774;52.034;5.342;2024-02-15T01:48:42;7.32;;;6.60;;
19280;SDS011;9774;52.034;5.342;2024-02-15T01:51:10;9.35;;;6.35;;
19280;SDS011;9774;52.034;5.342;2024-02-15T01:53:41;7.60;;;6.65;;
19280;SDS011;9774;52.034;5.342;2024-02-15T01:56:11;8.43;;;6.10;;
19280;SDS011;9774;52.034;5.342;2024-02-15T01:58:42;6.85;;;6.15;;
19280;SDS011;9774;52.034;5.342;2024-02-15T02:01:12;7.50;;;5.70;;
19280;SDS011;9774;52.034;5.342;2024-02-15T02:03:40;6.53;;;5.38;;
19280;SDS011;9774;52.034;5.342;2024-02-15T02:06:08;8.25;;;6.13;;
19280;SDS011;9774;52.034;5.342;2024-02-15T02:08:35;10.52;;;5.90;;
19280;SDS011;9774;52.034;5.342;2024-02-15T02:11:03;9.27;;;5.88;;
19280;SDS011;9774;52.034;5.342;2024-02-15T02:13:31;7.00;;;5.60;;
19280;SDS011;9774;52.034;5.342;2024-02-15T02:15:58;8.10;;;5.10;;
19280;SDS011;9774;52.034;5.342;2024-02-15T02:18:26;6.03;;;4.80;;
19280;SDS011;9774;52.034;5.342;2024-02-15T02:20:53;6.55;;;4.80;;
19280;SDS011;9774;52.034;5.342;2024-02-15T02:23:20;7.63;;;5.43;;
19280;SDS011;9774;52.034;5.342;2024-02-15T02:25:53;7.00;;;4.35;;
19280;SDS011;9774;52.034;5.342;2024-02-15T02:28:21;6.20;;;5.05;;
19280;SDS011;9774;52.034;5.342;2024-02-15T02:30:49;6.60;;;4.72;;
19280;SDS011;9774;52.034;5.342;2024-02-15T02:33:16;6.28;;;4.20;;
19280;SDS011;9774;52.034;5.342;2024-02-15T02:35:44;10.20;;;4.95;;
19280;SDS011;9774;52.034;5.342;2024-02-15T02:38:12;5.93;;;4.90;;
19280;SDS011;9774;52.034;5.342;2024-02-15T02:40:41;7.60;;;4.38;;
19280;SDS011;9774;52.034;5.342;2024-02-15T02:43:09;5.85;;;4.40;;
19280;SDS011;9774;52.034;5.342;2024-02-15T02:45:36;4.38;;;3.75;;
19280;SDS011;9774;52.034;5.342;2024-02-15T02:48:04;5.53;;;3.80;;
19280;SDS011;9774;52.034;5.342;2024-02-15T02:50:32;6.85;;;4.30;;
19280;SDS011;9774;52.034;5.342;2024-02-15T02:52:59;6.25;;;4.00;;
19280;SDS011;9774;52.034;5.342;2024-02-15T02:55:26;5.07;;;4.13;;
19280;SDS011;9774;52.034;5.342;2024-02-15T02:57:53;5.95;;;4.45;;
19280;SDS011;9774;52.034;5.342;2024-02-15T03:00:22;7.65;;;4.50;;
19280;SDS011;9774;52.034;5.342;2024-02-15T03:02:49;5.97;;;4.57;;
19280;SDS011;9774;52.034;5.342;2024-02-15T03:05:16;6.95;;;4.32;;
19280;SDS011;9774;52.034;5.342;2024-02-15T03:07:45;5.28;;;4.03;;
19280;SDS011;9774;52.034;5.342;2024-02-15T03:10:14;8.02;;;4.20;;
19280;SDS011;9774;52.034;5.342;2024-02-15T03:12:42;8.25;;;3.85;;
19280;SDS011;9774;52.034;5.342;2024-02-15T03:15:12;6.53;;;4.38;;
19280;SDS011;9774;52.034;5.342;2024-02-15T03:17:42;5.47;;;3.75;;
19280;SDS011;9774;52.034;5.342;2024-02-15T03:20:11;6.68;;;3.58;;
19280;SDS011;9774;52.034;5.342;2024-02-15T03:22:50;7.18;;;3.75;;
19280;SDS011;9774;52.034;5.342;2024-02-15T03:25:18;6.05;;;3.92;;
19280;SDS011;9774;52.034;5.342;2024-02-15T03:27:48;5.85;;;4.07;;
19280;SDS011;9774;52.034;5.342;2024-02-15T03:30:16;8.23;;;4.05;;
19280;SDS011;9774;52.034;5.342;2024-02-15T03:32:45;8.65;;;3.95;;
19280;SDS011;9774;52.034;5.342;2024-02-15T03:35:13;6.75;;;3.28;;
19280;SDS011;9774;52.034;5.342;2024-02-15T03:37:41;5.68;;;3.67;;
19280;SDS011;9774;52.034;5.342;2024-02-15T03:40:09;4.55;;;3.67;;
19280;SDS011;9774;52.034;5.342;2024-02-15T03:42:37;5.32;;;3.55;;
19280;SDS011;9774;52.034;5.342;2024-02-15T03:45:04;4.47;;;3.63;;
19280;SDS011;9774;52.034;5.342;2024-02-15T03:47:33;4.47;;;3.47;;
19280;SDS011;9774;52.034;5.342;2024-02-15T03:50:02;7.65;;;3.63;;
19280;SDS011;9774;52.034;5.342;2024-02-15T03:52:31;5.63;;;3.47;;
19280;SDS011;9774;52.034;5.342;2024-02-15T03:54:58;5.28;;;3.33;;
19280;SDS011;9774;52.034;5.342;2024-02-15T03:57:27;4.30;;;3.28;;
19280;SDS011;9774;52.034;5.342;2024-02-15T03:59:54;7.65;;;3.25;;
19280;SDS011;9774;52.034;5.342;2024-02-15T04:02:24;7.43;;;3.08;;
19280;SDS011;9774;52.034;5.342;2024-02-15T04:04:53;6.55;;;3.40;;
19280;SDS011;9774;52.034;5.342;2024-02-15T04:07:22;7.88;;;3.50;;
19280;SDS011;9774;52.034;5.342;2024-02-15T04:09:51;6.78;;;3.78;;
19280;SDS011;9774;52.034;5.342;2024-02-15T04:12:18;6.35;;;3.65;;
19280;SDS011;9774;52.034;5.342;2024-02-15T04:14:46;5.35;;;3.10;;
19280;SDS011;9774;52.034;5.342;2024-02-15T04:17:14;5.75;;;3.13;;
19280;SDS011;9774;52.034;5.342;2024-02-15T04:19:42;6.95;;;3.03;;
19280;SDS011;9774;52.034;5.342;2024-02-15T04:22:11;6.97;;;3.47;;
19280;SDS011;9774;52.034;5.342;2024-02-15T04:24:42;9.32;;;3.65;;
19280;SDS011;9774;52.034;5.342;2024-02-15T04:27:10;6.25;;;3.63;;
19280;SDS011;9774;52.034;5.342;2024-02-15T04:29:38;6.13;;;3.42;;
19280;SDS011;9774;52.034;5.342;2024-02-15T04:32:06;3.92;;;2.83;;
19280;SDS011;9774;52.034;5.342;2024-02-15T04:34:35;6.18;;;3.50;;
19280;SDS011;9774;52.034;5.342;2024-02-15T04:37:02;9.77;;;3.17;;
19280;SDS011;9774;52.034;5.342;2024-02-15T04:39:32;4.43;;;3.03;;
19280;SDS011;9774;52.034;5.342;2024-02-15T04:42:02;4.82;;;2.75;;
19280;SDS011;9774;52.034;5.342;2024-02-15T04:44:32;6.68;;;3.15;;
19280;SDS011;9774;52.034;5.342;2024-02-15T04:47:00;7.50;;;3.08;;
19280;SDS011;9774;52.034;5.342;2024-02-15T04:49:29;5.78;;;2.70;;
19280;SDS011;9774;52.034;5.342;2024-02-15T04:51:56;7.65;;;3.25;;
19280;SDS011;9774;52.034;5.342;2024-02-15T04:54:23;5.20;;;3.17;;
19280;SDS011;9774;52.034;5.342;2024-02-15T04:56:51;7.22;;;2.85;;
19280;SDS011;9774;52.034;5.342;2024-02-15T04:59:21;6.20;;;3.20;;
19280;SDS011;9774;52.034;5.342;2024-02-15T05:01:50;4.53;;;3.20;;
19280;SDS011;9774;52.034;5.342;2024-02-15T05:04:18;7.88;;;3.63;;
19280;SDS011;9774;52.034;5.342;2024-02-15T05:06:45;5.70;;;2.67;;
19280;SDS011;9774;52.034;5.342;2024-02-15T05:09:12;4.55;;;2.63;;
19280;SDS011;9774;52.034;5.342;2024-02-15T05:11:40;4.78;;;2.90;;
19280;SDS011;9774;52.034;5.342;2024-02-15T05:14:11;7.78;;;3.65;;
19280;SDS011;9774;52.034;5.342;2024-02-15T05:16:41;5.82;;;3.25;;
19280;SDS011;9774;52.034;5.342;2024-02-15T05:19:08;4.18;;;2.95;;
19280;SDS011;9774;52.034;5.342;2024-02-15T05:21:37;5.60;;;3.17;;
19280;SDS011;9774;52.034;5.342;2024-02-15T05:24:05;5.22;;;3.13;;
19280;SDS011;9774;52.034;5.342;2024-02-15T05:26:33;3.40;;;2.70;;
19280;SDS011;9774;52.034;5.342;2024-02-15T05:29:00;4.95;;;3.05;;
19280;SDS011;9774;52.034;5.342;2024-02-15T05:31:29;3.75;;;2.75;;
19280;SDS011;9774;52.034;5.342;2024-02-15T05:33:58;7.45;;;3.28;;
19280;SDS011;9774;52.034;5.342;2024-02-15T05:36:25;7.78;;;3.10;;
19280;SDS011;9774;52.034;5.342;2024-02-15T05:38:53;3.92;;;2.92;;
19280;SDS011;9774;52.034;5.342;2024-02-15T05:41:20;6.00;;;3.20;;
19280;SDS011;9774;52.034;5.342;2024-02-15T05:43:47;5.20;;;2.70;;
19280;SDS011;9774;52.034;5.342;2024-02-15T05:46:15;4.43;;;2.58;;
19280;SDS011;9774;52.034;5.342;2024-02-15T05:48:42;3.17;;;2.72;;
19280;SDS011;9774;52.034;5.342;2024-02-15T05:51:10;4.03;;;2.92;;
19280;SDS011;9774;52.034;5.342;2024-02-15T05:53:38;5.20;;;2.97;;
19280;SDS011;9774;52.034;5.342;2024-02-15T05:56:06;6.47;;;3.58;;
19280;SDS011;9774;52.034;5.342;2024-02-15T05:58:35;4.38;;;2.60;;
19280;SDS011;9774;52.034;5.342;2024-02-15T06:01:02;6.03;;;3.10;;
19280;SDS011;9774;52.034;5.342;2024-02-15T06:03:32;6.10;;;3.13;;
19280;SDS011;9774;52.034;5.342;2024-02-15T06:06:03;5.00;;;3.22;;
19280;SDS011;9774;52.034;5.342;2024-02-15T06:08:34;4.32;;;2.85;;
19280;SDS011;9774;52.034;5.342;2024-02-15T06:11:02;6.60;;;3.05;;
19280;SDS011;9774;52.034;5.342;2024-02-15T06:13:30;5.03;;;2.80;;
19280;SDS011;9774;52.034;5.342;2024-02-15T06:15:58;7.18;;;2.78;;
19280;SDS011;9774;52.034;5.342;2024-02-15T06:18:26;3.63;;;2.80;;
19280;SDS011;9774;52.034;5.342;2024-02-15T06:20:58;3.50;;;2.63;;
19280;SDS011;9774;52.034;5.342;2024-02-15T06:23:26;3.72;;;3.03;;
19280;SDS011;9774;52.034;5.342;2024-02-15T06:25:55;5.43;;;3.30;;
19280;SDS011;9774;52.034;5.342;2024-02-15T06:28:23;7.00;;;3.33;;
19280;SDS011;9774;52.034;5.342;2024-02-15T06:31:08;3.53;;;2.55;;
19280;SDS011;9774;52.034;5.342;2024-02-15T06:33:54;4.97;;;3.00;;
19280;SDS011;9774;52.034;5.342;2024-02-15T06:36:39;3.78;;;2.70;;
19280;SDS011;9774;52.034;5.342;2024-02-15T06:39:29;4.68;;;3.30;;
19280;SDS011;9774;52.034;5.342;2024-02-15T06:42:08;4.40;;;3.28;;
19280;SDS011;9774;52.034;5.342;2024-02-15T06:44:40;4.13;;;3.13;;
19280;SDS011;9774;52.034;5.342;2024-02-15T06:47:07;4.60;;;3.25;;
19280;SDS011;9774;52.034;5.342;2024-02-15T06:49:35;6.50;;;3.78;;
19280;SDS011;9774;52.034;5.342;2024-02-15T06:52:05;3.70;;;3.35;;
19280;SDS011;9774;52.034;5.342;2024-02-15T06:54:33;5.28;;;3.85;;
19280;SDS011;9774;52.034;5.342;2024-02-15T06:57:02;5.57;;;3.90;;
19280;SDS011;9774;52.034;5.342;2024-02-15T06:59:36;5.30;;;3.50;;
19280;SDS011;9774;52.034;5.342;2024-02-15T07:02:04;3.63;;;3.20;;
19280;SDS011;9774;52.034;5.342;2024-02-15T07:04:33;4.43;;;3.60;;
19280;SDS011;9774;52.034;5.342;2024-02-15T07:07:01;4.93;;;3.80;;
19280;SDS011;9774;52.034;5.342;2024-02-15T07:09:29;4.28;;;3.45;;
19280;SDS011;9774;52.034;5.342;2024-02-15T07:11:56;3.95;;;3.00;;
19280;SDS011;9774;52.034;5.342;2024-02-15T07:14:24;5.80;;;3.40;;
19280;SDS011;9774;52.034;5.342;2024-02-15T07:16:54;4.07;;;3.15;;
19280;SDS011;9774;52.034;5.342;2024-02-15T07:19:22;3.40;;;3.10;;
19280;SDS011;9774;52.034;5.342;2024-02-15T07:21:52;4.18;;;3.38;;
19280;SDS011;9774;52.034;5.342;2024-02-15T07:24:20;7.82;;;3.40;;
19280;SDS011;9774;52.034;5.342;2024-02-15T07:26:47;2.90;;;2.60;;
19280;SDS011;9774;52.034;5.342;2024-02-15T07:29:17;4.47;;;2.80;;
19280;SDS011;9774;52.034;5.342;2024-02-15T07:31:45;3.60;;;2.90;;
19280;SDS011;9774;52.034;5.342;2024-02-15T07:34:13;5.47;;;3.20;;
19280;SDS011;9774;52.034;5.342;2024-02-15T07:36:41;3.47;;;2.42;;
19280;SDS011;9774;52.034;5.342;2024-02-15T07:39:10;4.72;;;2.97;;
19280;SDS011;9774;52.034;5.342;2024-02-15T07:41:48;3.97;;;2.92;;
19280;SDS011;9774;52.034;5.342;2024-02-15T07:44:15;3.92;;;2.75;;
19280;SDS011;9774;52.034;5.342;2024-02-15T07:46:42;3.45;;;2.63;;
19280;SDS011;9774;52.034;5.342;2024-02-15T07:49:10;3.58;;;2.65;;
19280;SDS011;9774;52.034;5.342;2024-02-15T07:51:38;3.13;;;2.70;;
19280;SDS011;9774;52.034;5.342;2024-02-15T07:54:05;3.30;;;2.28;;
19280;SDS011;9774;52.034;5.342;2024-02-15T07:56:32;3.08;;;2.40;;
19280;SDS011;9774;52.034;5.342;2024-02-15T07:59:00;3.40;;;2.45;;
19280;SDS011;9774;52.034;5.342;2024-02-15T08:01:28;2.92;;;2.58;;
19280;SDS011;9774;52.034;5.342;2024-02-15T08:03:56;4.68;;;2.72;;
19280;SDS011;9774;52.034;5.342;2024-02-15T08:06:23;4.10;;;2.72;;
19280;SDS011;9774;52.034;5.342;2024-02-15T08:08:54;2.55;;;2.35;;
19280;SDS011;9774;52.034;5.342;2024-02-15T08:11:21;3.95;;;2.58;;
19280;SDS011;9774;52.034;5.342;2024-02-15T08:13:51;4.13;;;2.50;;
19280;SDS011;9774;52.034;5.342;2024-02-15T08:16:23;4.05;;;2.80;;
19280;SDS011;9774;52.034;5.342;2024-02-15T08:18:52;2.75;;;2.08;;
19280;SDS011;9774;52.034;5.342;2024-02-15T08:21:24;3.50;;;2.15;;
19280;SDS011;9774;52.034;5.342;2024-02-15T08:23:55;3.35;;;2.25;;
19280;SDS011;9774;52.034;5.342;2024-02-15T08:26:23;2.95;;;2.17;;
19280;SDS011;9774;52.034;5.342;2024-02-15T08:28:51;4.28;;;2.10;;
19280;SDS011;9774;52.034;5.342;2024-02-15T08:31:18;3.60;;;2.10;;
19280;SDS011;9774;52.034;5.342;2024-02-15T08:33:47;4.28;;;2.28;;
19280;SDS011;9774;52.034;5.342;2024-02-15T08:36:14;2.53;;;1.65;;
19280;SDS011;9774;52.034;5.342;2024-02-15T08:38:41;2.10;;;1.30;;
19280;SDS011;9774;52.034;5.342;2024-02-15T08:41:11;5.13;;;1.48;;
19280;SDS011;9774;52.034;5.342;2024-02-15T08:43:39;2.10;;;1.02;;
19280;SDS011;9774;52.034;5.342;2024-02-15T08:46:06;2.72;;;1.40;;
19280;SDS011;9774;52.034;5.342;2024-02-15T08:48:35;1.55;;;1.15;;
19280;SDS011;9774;52.034;5.342;2024-02-15T08:51:02;2.30;;;1.23;;
19280;SDS011;9774;52.034;5.342;2024-02-15T08:53:31;1.75;;;1.20;;
19280;SDS011;9774;52.034;5.342;2024-02-15T08:55:58;2.20;;;1.40;;
19280;SDS011;9774;52.034;5.342;2024-02-15T08:58:27;3.17;;;1.38;;
19280;SDS011;9774;52.034;5.342;2024-02-15T09:00:55;2.97;;;1.48;;
19280;SDS011;9774;52.034;5.342;2024-02-15T09:03:22;3.28;;;1.30;;
19280;SDS011;9774;52.034;5.342;2024-02-15T09:05:50;1.92;;;1.55;;
19280;SDS011;9774;52.034;5.342;2024-02-15T09:08:17;1.63;;;1.13;;
19280;SDS011;9774;52.034;5.342;2024-02-15T09:10:46;2.72;;;1.65;;
19280;SDS011;9774;52.034;5.342;2024-02-15T09:13:13;2.28;;;1.38;;
19280;SDS011;9774;52.034;5.342;2024-02-15T09:15:43;2.55;;;1.40;;
19280;SDS011;9774;52.034;5.342;2024-02-15T09:18:12;2.60;;;1.35;;
19280;SDS011;9774;52.034;5.342;2024-02-15T09:20:40;2.45;;;1.48;;
19280;SDS011;9774;52.034;5.342;2024-02-15T09:23:10;4.85;;;1.58;;
19280;SDS011;9774;52.034;5.342;2024-02-15T09:25:38;1.60;;;1.05;;
19280;SDS011;9774;52.034;5.342;2024-02-15T09:28:05;2.30;;;1.58;;
19280;SDS011;9774;52.034;5.342;2024-02-15T09:30:33;3.13;;;1.40;;
19280;SDS011;9774;52.034;5.342;2024-02-15T09:33:02;3.55;;;1.67;;
19280;SDS011;9774;52.034;5.342;2024-02-15T09:35:30;2.90;;;1.48;;
19280;SDS011;9774;52.034;5.342;2024-02-15T09:38:00;3.13;;;1.35;;
19280;SDS011;9774;52.034;5.342;2024-02-15T09:40:27;2.72;;;1.05;;
19280;SDS011;9774;52.034;5.342;2024-02-15T09:42:54;3.50;;;1.55;;
19280;SDS011;9774;52.034;5.342;2024-02-15T09:45:21;2.63;;;1.40;;
19280;SDS011;9774;52.034;5.342;2024-02-15T09:47:50;2.63;;;1.35;;
19280;SDS011;9774;52.034;5.342;2024-02-15T09:50:19;3.65;;;1.05;;
19280;SDS011;9774;52.034;5.342;2024-02-15T09:52:50;3.15;;;1.30;;
19280;SDS011;9774;52.034;5.342;2024-02-15T09:55:19;4.25;;;1.50;;
19280;SDS011;9774;52.034;5.342;2024-02-15T09:57:49;4.82;;;1.50;;
19280;SDS011;9774;52.034;5.342;2024-02-15T10:00:17;2.90;;;1.42;;
19280;SDS011;9774;52.034;5.342;2024-02-15T10:02:46;1.67;;;1.48;;
19280;SDS011;9774;52.034;5.342;2024-02-15T10:05:19;3.55;;;2.50;;
19280;SDS011;9774;52.034;5.342;2024-02-15T10:07:48;2.58;;;1.83;;
19280;SDS011;9774;52.034;5.342;2024-02-15T10:10:16;3.95;;;1.63;;
19280;SDS011;9774;52.034;5.342;2024-02-15T10:12:45;2.60;;;1.52;;
19280;SDS011;9774;52.034;5.342;2024-02-15T10:18:03;3.33;;;1.42;;
19280;SDS011;9774;52.034;5.342;2024-02-15T10:20:34;3.72;;;1.42;;
19280;SDS011;9774;52.034;5.342;2024-02-15T10:23:09;4.03;;;1.52;;
19280;SDS011;9774;52.034;5.342;2024-02-15T10:25:37;3.03;;;1.75;;
19280;SDS011;9774;52.034;5.342;2024-02-15T10:28:06;5.97;;;1.50;;
19280;SDS011;9774;52.034;5.342;2024-02-15T10:30:35;2.15;;;1.40;;
19280;SDS011;9774;52.034;5.342;2024-02-15T10:33:04;3.67;;;2.05;;
19280;SDS011;9774;52.034;5.342;2024-02-15T10:35:32;1.88;;;1.30;;
19280;SDS011;9774;52.034;5.342;2024-02-15T10:38:05;2.67;;;1.50;;
19280;SDS011;9774;52.034;5.342;2024-02-15T10:40:34;2.72;;;1.90;;
19280;SDS011;9774;52.034;5.342;2024-02-15T10:43:02;2.45;;;1.42;;
19280;SDS011;9774;52.034;5.342;2024-02-15T10:45:31;4.63;;;2.05;;
19280;SDS011;9774;52.034;5.342;2024-02-15T10:47:59;4.45;;;1.75;;
19280;SDS011;9774;52.034;5.342;2024-02-15T10:50:26;3.75;;;1.88;;
19280;SDS011;9774;52.034;5.342;2024-02-15T10:52:55;3.28;;;1.90;;
19280;SDS011;9774;52.034;5.342;2024-02-15T10:55:27;2.83;;;1.60;;
19280;SDS011;9774;52.034;5.342;2024-02-15T10:58:05;4.53;;;1.60;;
19280;SDS011;9774;52.034;5.342;2024-02-15T11:00:33;3.83;;;1.83;;
19280;SDS011;9774;52.034;5.342;2024-02-15T11:03:03;4.88;;;2.03;;
19280;SDS011;9774;52.034;5.342;2024-02-15T11:05:34;4.63;;;2.28;;
19280;SDS011;9774;52.034;5.342;2024-02-15T11:08:04;1.95;;;1.42;;
19280;SDS011;9774;52.034;5.342;2024-02-15T11:10:34;3.40;;;2.08;;
19280;SDS011;9774;52.034;5.342;2024-02-15T11:13:03;8.02;;;2.88;;
19280;SDS011;9774;52.034;5.342;2024-02-15T11:15:40;3.25;;;2.25;;
19280;SDS011;9774;52.034;5.342;2024-02-15T11:21:14;3.58;;;2.28;;
19280;SDS011;9774;52.034;5.342;2024-02-15T11:23:43;5.50;;;2.15;;
19280;SDS011;9774;52.034;5.342;2024-02-15T11:35:05;2.92;;;2.08;;
19280;SDS011;9774;52.034;5.342;2024-02-15T11:37:50;4.32;;;2.50;;
19280;SDS011;9774;52.034;5.342;2024-02-15T11:40:25;6.57;;;2.70;;
19280;SDS011;9774;52.034;5.342;2024-02-15T11:42:54;4.50;;;2.45;;
19280;SDS011;9774;52.034;5.342;2024-02-15T11:45:24;3.00;;;2.25;;
19280;SDS011;9774;52.034;5.342;2024-02-15T11:47:57;2.85;;;2.00;;
19280;SDS011;9774;52.034;5.342;2024-02-15T11:50:27;2.65;;;1.90;;
19280;SDS011;9774;52.034;5.342;2024-02-15T11:53:02;3.53;;;2.42;;
19280;SDS011;9774;52.034;5.342;2024-02-15T11:55:36;3.75;;;2.13;;
19280;SDS011;9774;52.034;5.342;2024-02-15T11:58:04;5.10;;;2.80;;
19280;SDS011;9774;52.034;5.342;2024-02-15T12:00:43;4.65;;;2.47;;
19280;SDS011;9774;52.034;5.342;2024-02-15T12:03:28;4.57;;;2.53;;
19280;SDS011;9774;52.034;5.342;2024-02-15T12:06:16;4.47;;;2.70;;
19280;SDS011;9774;52.034;5.342;2024-02-15T12:09:17;3.92;;;2.42;;
19280;SDS011;9774;52.034;5.342;2024-02-15T12:12:03;2.35;;;2.03;;
19280;SDS011;9774;52.034;5.342;2024-02-15T12:14:48;2.80;;;2.45;;
19280;SDS011;9774;52.034;5.342;2024-02-15T12:17:33;2.40;;;2.05;;
19280;SDS011;9774;52.034;5.342;2024-02-15T12:20:17;4.22;;;2.50;;
19280;SDS011;9774;52.034;5.342;2024-02-15T12:22:49;2.92;;;2.10;;
19280;SDS011;9774;52.034;5.342;2024-02-15T12:25:18;2.35;;;2.13;;
19280;SDS011;9774;52.034;5.342;2024-02-15T12:27:51;3.15;;;2.40;;
19280;SDS011;9774;52.034;5.342;2024-02-15T12:30:20;2.95;;;1.95;;
19280;SDS011;9774;52.034;5.342;2024-02-15T12:32:50;3.22;;;2.35;;
19280;SDS011;9774;52.034;5.342;2024-02-15T12:35:19;2.58;;;1.88;;
19280;SDS011;9774;52.034;5.342;2024-02-15T12:37:49;4.03;;;2.03;;
19280;SDS011;9774;52.034;5.342;2024-02-15T12:40:30;3.10;;;1.50;;
19280;SDS011;9774;52.034;5.342;2024-02-15T12:43:00;4.40;;;1.90;;
19280;SDS011;9774;52.034;5.342;2024-02-15T12:45:31;4.85;;;2.00;;
19280;SDS011;9774;52.034;5.342;2024-02-15T12:48:02;3.28;;;2.22;;
19280;SDS011;9774;52.034;5.342;2024-02-15T12:50:32;3.17;;;2.00;;
19280;SDS011;9774;52.034;5.342;2024-02-15T12:53:00;3.70;;;1.90;;
19280;SDS011;9774;52.034;5.342;2024-02-15T12:55:28;3.20;;;1.83;;
19280;SDS011;9774;52.034;5.342;2024-02-15T12:58:01;3.40;;;1.60;;
19280;SDS011;9774;52.034;5.342;2024-02-15T13:00:34;3.20;;;1.70;;
19280;SDS011;9774;52.034;5.342;2024-02-15T13:03:04;4.03;;;1.90;;
19280;SDS011;9774;52.034;5.342;2024-02-15T13:05:35;5.38;;;1.95;;
19280;SDS011;9774;52.034;5.342;2024-02-15T13:08:03;2.83;;;1.50;;
19280;SDS011;9774;52.034;5.342;2024-02-15T13:10:35;4.40;;;1.70;;
19280;SDS011;9774;52.034;5.342;2024-02-15T13:13:05;3.28;;;1.40;;
19280;SDS011;9774;52.034;5.342;2024-02-15T13:15:34;4.43;;;1.80;;
19280;SDS011;9774;52.034;5.342;2024-02-15T13:18:03;1.92;;;1.30;;
19280;SDS011;9774;52.034;5.342;2024-02-15T13:20:31;3.75;;;1.30;;
19280;SDS011;9774;52.034;5.342;2024-02-15T13:22:59;2.47;;;1.27;;
19280;SDS011;9774;52.034;5.342;2024-02-15T13:25:33;2.22;;;1.48;;
19280;SDS011;9774;52.034;5.342;2024-02-15T13:28:01;3.42;;;1.98;;
19280;SDS011;9774;52.034;5.342;2024-02-15T13:30:30;4.05;;;1.40;;
19280;SDS011;9774;52.034;5.342;2024-02-15T13:32:59;7.47;;;1.40;;
19280;SDS011;9774;52.034;5.342;2024-02-15T13:35:27;2.95;;;1.35;;
19280;SDS011;9774;52.034;5.342;2024-02-15T13:37:55;4.18;;;1.33;;
19280;SDS011;9774;52.034;5.342;2024-02-15T13:40:23;2.83;;;1.52;;
19280;SDS011;9774;52.034;5.342;2024-02-15T13:42:53;2.92;;;1.40;;
19280;SDS011;9774;52.034;5.342;2024-02-15T13:45:24;2.60;;;1.30;;
19280;SDS011;9774;52.034;5.342;2024-02-15T13:47:58;1.75;;;1.30;;
19280;SDS011;9774;52.034;5.342;2024-02-15T13:50:28;1.88;;;1.23;;
19280;SDS011;9774;52.034;5.342;2024-02-15T13:52:55;2.63;;;1.50;;
19280;SDS011;9774;52.034;5.342;2024-02-15T13:55:23;3.95;;;1.73;;
19280;SDS011;9774;52.034;5.342;2024-02-15T13:57:51;4.28;;;1.38;;
19280;SDS011;9774;52.034;5.342;2024-02-15T14:00:20;3.22;;;1.10;;
19280;SDS011;9774;52.034;5.342;2024-02-15T14:02:48;3.55;;;1.92;;
19280;SDS011;9774;52.034;5.342;2024-02-15T14:05:18;4.55;;;1.55;;
19280;SDS011;9774;52.034;5.342;2024-02-15T14:07:46;2.78;;;1.35;;
19280;SDS011;9774;52.034;5.342;2024-02-15T14:10:15;2.28;;;1.55;;
19280;SDS011;9774;52.034;5.342;2024-02-15T14:12:46;2.85;;;1.20;;
19280;SDS011;9774;52.034;5.342;2024-02-15T14:15:14;2.67;;;1.63;;
19280;SDS011;9774;52.034;5.342;2024-02-15T14:17:42;2.92;;;1.60;;
19280;SDS011;9774;52.034;5.342;2024-02-15T14:20:10;3.75;;;1.80;;
19280;SDS011;9774;52.034;5.342;2024-02-15T14:22:40;4.60;;;1.90;;
19280;SDS011;9774;52.034;5.342;2024-02-15T14:25:10;3.30;;;1.40;;
19280;SDS011;9774;52.034;5.342;2024-02-15T14:27:38;2.08;;;1.50;;
19280;SDS011;9774;52.034;5.342;2024-02-15T14:30:06;2.60;;;1.35;;
19280;SDS011;9774;52.034;5.342;2024-02-15T14:32:51;2.63;;;1.38;;
19280;SDS011;9774;52.034;5.342;2024-02-15T14:35:32;1.48;;;1.05;;
19280;SDS011;9774;52.034;5.342;2024-02-15T14:38:03;3.28;;;1.75;;
19280;SDS011;9774;52.034;5.342;2024-02-15T14:40:33;3.80;;;1.98;;
19280;SDS011;9774;52.034;5.342;2024-02-15T14:43:01;6.00;;;1.98;;
19280;SDS011;9774;52.034;5.342;2024-02-15T14:45:29;3.38;;;1.33;;
19280;SDS011;9774;52.034;5.342;2024-02-15T14:47:57;2.95;;;1.52;;
19280;SDS011;9774;52.034;5.342;2024-02-15T14:50:24;1.88;;;1.23;;
19280;SDS011;9774;52.034;5.342;2024-02-15T14:52:52;2.00;;;1.35;;
19280;SDS011;9774;52.034;5.342;2024-02-15T14:55:21;2.22;;;1.20;;
19280;SDS011;9774;52.034;5.342;2024-02-15T14:57:48;3.53;;;1.45;;
19280;SDS011;9774;52.034;5.342;2024-02-15T15:00:15;2.03;;;1.77;;
19280;SDS011;9774;52.034;5.342;2024-02-15T15:02:44;2.97;;;1.35;;
19280;SDS011;9774;52.034;5.342;2024-02-15T15:05:12;2.58;;;1.40;;
19280;SDS011;9774;52.034;5.342;2024-02-15T15:07:58;2.10;;;0.95;;
19280;SDS011;9774;52.034;5.342;2024-02-15T15:10:46;2.05;;;1.10;;
19280;SDS011;9774;52.034;5.342;2024-02-15T15:13:45;2.15;;;1.30;;
19280;SDS011;9774;52.034;5.342;2024-02-15T15:16:13;2.97;;;1.42;;
19280;SDS011;9774;52.034;5.342;2024-02-15T15:18:43;2.50;;;1.40;;
19280;SDS011;9774;52.034;5.342;2024-02-15T15:21:11;4.40;;;1.80;;
19280;SDS011;9774;52.034;5.342;2024-02-15T15:23:38;3.80;;;1.35;;
19280;SDS011;9774;52.034;5.342;2024-02-15T15:26:09;2.47;;;1.58;;
19280;SDS011;9774;52.034;5.342;2024-02-15T15:28:37;6.05;;;1.50;;